Time;durP1;ratioP1;P1;durP2;ratioP2;P2;SDS_P1;SDS_P2;PMS_P1;PMS_P2;Temp;Humidity;BMP_temperature;BMP_pressure;BME280_temperature;BME280_humidity;BME280_pressure;Samples;Min_cycle;Max_cycle;Signal;HPM_P1;HPM_P2
2022/04/05 00:00:52;;;;;;;7.60;4.82;;;;;;;7.65;84.30;100509.63;4827343;29;20034;-72
2022/04/05 00:03:17;;;;;;;8.27;5.13;;;;;;;7.63;86.15;100509.06;4831013;29;20038;-72
2022/04/05 00:05:43;;;;;;;8.77;5.13;;;;;;;7.61;85.34;100506.59;4830669;29;20372;-72
2022/04/05 00:08:09;;;;;;;6.68;3.83;;;;;;;7.64;82.71;100508.00;4820802;29;20043;-72
2022/04/05 00:10:36;;;;;;;8.32;4.20;;;;;;;7.63;83.58;100503.56;4841834;29;20043;-72
2022/04/05 00:13:05;;;;;;;6.85;4.93;;;;;;;7.61;82.95;100501.06;4828469;29;20067;-72
2022/04/05 00:15:32;;;;;;;6.18;4.22;;;;;;;7.64;83.31;100499.69;4827194;29;20038;-72
2022/04/05 00:17:57;;;;;;;7.07;4.00;;;;;;;7.63;84.35;100497.19;4841456;29;20038;-72
2022/04/05 00:20:23;;;;;;;7.10;4.60;;;;;;;7.62;83.04;100496.38;4828234;29;20030;-72
2022/04/05 00:22:48;;;;;;;8.70;4.82;;;;;;;7.63;82.75;100498.03;4828420;29;20071;-72
2022/04/05 00:25:14;;;;;;;10.68;5.00;;;;;;;7.64;83.64;100493.34;4828434;29;20042;-72
2022/04/05 00:27:39;;;;;;;7.22;4.55;;;;;;;7.63;82.07;100498.03;4827536;29;20035;-72
2022/04/05 00:30:05;;;;;;;6.10;4.00;;;;;;;7.65;83.73;100495.00;4827992;29;20088;-72
2022/04/05 00:32:31;;;;;;;7.63;4.03;;;;;;;7.62;80.44;100493.59;4831434;29;20034;-72
2022/04/05 00:34:56;;;;;;;10.82;4.75;;;;;;;7.65;83.48;100498.59;4848613;29;20039;-72
2022/04/05 00:37:21;;;;;;;5.75;3.78;;;;;;;7.63;81.83;100500.78;4828166;29;20047;-72
2022/04/05 00:39:50;;;;;;;6.20;3.90;;;;;;;7.66;83.49;100496.66;4826927;29;20037;-72
2022/04/05 00:42:16;;;;;;;6.97;3.97;;;;;;;7.67;84.01;100498.31;4816186;29;20038;-72
2022/04/05 00:44:41;;;;;;;9.05;4.30;;;;;;;7.67;84.70;100499.16;4827037;29;20038;-72
2022/04/05 00:47:21;;;;;;;6.57;3.90;;;;;;;7.68;84.64;100494.44;4826962;29;20559;-72
2022/04/05 00:49:47;;;;;;;7.45;3.67;;;;;;;7.65;82.92;100490.28;4827423;29;20099;-72
2022/04/05 00:52:13;;;;;;;7.57;4.13;;;;;;;7.66;86.95;100486.44;4826948;29;20050;-72
2022/04/05 00:54:40;;;;;;;6.65;4.10;;;;;;;7.67;86.26;100492.78;4829755;29;20082;-72
2022/04/05 00:57:10;;;;;;;8.65;4.07;;;;;;;7.66;84.56;100486.44;4830653;29;20080;-72
2022/04/05 00:59:35;;;;;;;5.20;4.03;;;;;;;7.65;82.43;100486.69;4811988;29;20030;-72
2022/04/05 01:02:01;;;;;;;8.65;5.10;;;;;;;7.67;86.15;100484.50;4826383;29;20523;-72
2022/04/05 01:04:28;;;;;;;6.78;3.80;;;;;;;7.67;84.10;100488.09;4827346;29;20067;-72
2022/04/05 01:06:54;;;;;;;6.30;4.30;;;;;;;7.69;85.13;100485.03;4826997;29;20034;-72
2022/04/05 01:09:20;;;;;;;6.13;3.65;;;;;;;7.68;82.87;100480.63;4810964;29;20042;-72
2022/04/05 01:11:45;;;;;;;5.95;3.72;;;;;;;7.68;81.96;100473.16;4826577;29;20091;-71
2022/04/05 01:14:11;;;;;;;6.30;4.20;;;;;;;7.70;83.20;100464.59;4827524;29;20063;-71
2022/04/05 01:16:38;;;;;;;4.95;4.03;;;;;;;7.70;82.50;100465.41;4817276;29;20030;-71
2022/04/05 01:19:04;;;;;;;6.07;3.63;;;;;;;7.72;83.87;100456.88;4826137;29;20086;-71
2022/04/05 01:21:30;;;;;;;5.53;4.40;;;;;;;7.72;84.91;100457.69;4814107;29;20046;-71
2022/04/05 01:24:09;;;;;;;4.82;3.90;;;;;;;7.72;83.76;100454.94;4828818;29;20095;-71
2022/04/05 01:26:44;;;;;;;4.40;3.38;;;;;;;7.73;84.39;100456.56;4825741;29;20062;-71
2022/04/05 01:29:10;;;;;;;5.47;3.75;;;;;;;7.73;85.20;100448.28;4819991;29;20034;-71
2022/04/05 01:31:46;;;;;;;5.20;3.80;;;;;;;7.72;83.80;100443.88;4827219;29;20568;-72
2022/04/05 01:34:12;;;;;;;6.88;4.22;;;;;;;7.74;84.58;100454.63;4830117;29;20059;-72
2022/04/05 01:36:45;;;;;;;6.45;4.38;;;;;;;7.74;85.19;100449.94;4827386;29;20041;-71
2022/04/05 01:39:17;;;;;;;6.38;3.65;;;;;;;7.75;84.38;100442.50;4811119;29;20571;-71
2022/04/05 01:41:43;;;;;;;5.50;3.50;;;;;;;7.75;83.79;100445.25;4826040;29;20050;-71
2022/04/05 01:44:09;;;;;;;6.07;3.90;;;;;;;7.75;82.22;100448.84;4826104;29;20069;-71
2022/04/05 01:46:35;;;;;;;4.35;3.63;;;;;;;7.75;82.26;100446.06;4827283;29;20069;-71
2022/04/05 01:49:01;;;;;;;4.53;3.45;;;;;;;7.76;83.72;100442.19;4829887;29;20042;-71
2022/04/05 01:51:26;;;;;;;6.57;3.42;;;;;;;7.76;83.18;100439.44;4826321;29;20565;-71
2022/04/05 01:53:52;;;;;;;5.85;4.25;;;;;;;7.78;83.85;100436.41;4818680;29;20113;-71
2022/04/05 01:56:18;;;;;;;4.50;3.35;;;;;;;7.77;83.54;100438.34;4821324;29;20472;-71
2022/04/05 01:58:43;;;;;;;5.60;4.18;;;;;;;7.79;84.89;100440.81;4807889;29;20035;-71
2022/04/05 02:01:09;;;;;;;6.90;4.95;;;;;;;7.78;83.54;100436.41;4821682;29;20596;-71
2022/04/05 02:03:35;;;;;;;5.70;4.10;;;;;;;7.80;84.07;100437.78;4826905;29;20049;-71
2022/04/05 02:06:00;;;;;;;6.65;4.10;;;;;;;7.81;83.41;100433.91;4826995;29;20034;-71
2022/04/05 02:08:26;;;;;;;5.43;3.55;;;;;;;7.80;83.45;100436.94;4825354;29;20038;-71
2022/04/05 02:10:51;;;;;;;5.18;4.10;;;;;;;7.80;84.55;100432.25;4807049;29;20060;-71
2022/04/05 02:13:17;;;;;;;6.38;4.40;;;;;;;7.81;84.20;100436.66;4829324;29;20042;-71
2022/04/05 02:15:42;;;;;;;4.95;4.07;;;;;;;7.82;83.65;100431.97;4829200;29;20042;-71
2022/04/05 02:18:08;;;;;;;8.30;6.40;;;;;;;7.84;88.13;100425.06;4810479;29;20026;-71
2022/04/05 02:20:33;;;;;;;5.22;4.25;;;;;;;7.82;84.15;100429.19;4826650;29;20037;-71
2022/04/05 02:22:59;;;;;;;5.75;4.80;;;;;;;7.84;84.49;100424.22;4810820;29;20034;-71
2022/04/05 02:25:26;;;;;;;6.10;4.13;;;;;;;7.82;84.75;100423.66;4810813;29;20122;-71
2022/04/05 02:27:52;;;;;;;4.80;4.22;;;;;;;7.83;84.44;100428.94;4821438;29;20045;-71
2022/04/05 02:30:17;;;;;;;5.53;4.50;;;;;;;7.84;85.12;100415.94;4799853;29;20031;-71
2022/04/05 02:32:43;;;;;;;7.15;4.40;;;;;;;7.86;84.95;100423.97;4809490;29;20043;-71
2022/04/05 02:35:10;;;;;;;5.07;3.67;;;;;;;7.84;83.67;100416.75;4823830;29;20074;-71
2022/04/05 02:37:36;;;;;;;6.97;4.80;;;;;;;7.85;85.23;100423.09;4814456;29;20034;-71
2022/04/05 02:40:02;;;;;;;4.93;4.10;;;;;;;7.86;85.38;100421.19;4833276;29;20066;-71
2022/04/05 02:42:29;;;;;;;6.45;4.18;;;;;;;7.86;84.86;100422.03;4813521;29;20046;-71
2022/04/05 02:44:54;;;;;;;6.32;4.30;;;;;;;7.88;84.90;100427.25;4813544;29;20407;-71
2022/04/05 02:47:20;;;;;;;6.13;4.30;;;;;;;7.88;85.37;100424.50;4813667;29;20523;-71
2022/04/05 02:49:45;;;;;;;5.45;4.70;;;;;;;7.89;87.35;100428.94;4828379;29;20043;-72
2022/04/05 02:52:11;;;;;;;6.05;4.93;;;;;;;7.88;85.78;100422.53;4828545;29;20125;-72
2022/04/05 02:54:36;;;;;;;5.68;4.40;;;;;;;7.88;84.68;100422.53;4816497;29;20362;-72
2022/04/05 02:57:02;;;;;;;5.88;4.15;;;;;;;7.88;83.78;100424.50;4813477;29;20054;-72
2022/04/05 02:59:27;;;;;;;6.38;4.50;;;;;;;7.88;84.37;100418.97;4828504;29;20042;-72
2022/04/05 03:01:53;;;;;;;5.45;4.40;;;;;;;7.88;83.55;100410.66;4828520;29;20109;-72
2022/04/05 03:04:18;;;;;;;7.28;5.50;;;;;;;7.89;84.64;100415.94;4829636;29;20035;-72
2022/04/05 03:06:44;;;;;;;6.75;4.70;;;;;;;7.87;83.56;100409.03;4832458;29;20041;-72
2022/04/05 03:09:09;;;;;;;5.30;4.15;;;;;;;7.88;83.83;100402.38;4830959;29;20038;-72
2022/04/05 03:11:35;;;;;;;4.70;4.00;;;;;;;7.86;83.65;100401.84;4829280;29;20031;-72
2022/04/05 03:14:00;;;;;;;5.80;4.55;;;;;;;7.86;83.48;100402.66;4829573;29;20046;-72
2022/04/05 03:16:26;;;;;;;6.15;4.68;;;;;;;7.89;84.83;100407.63;4828154;29;20030;-72
2022/04/05 03:18:53;;;;;;;5.68;4.25;;;;;;;7.89;83.64;100406.81;4830223;29;20033;-72
2022/04/05 03:21:18;;;;;;;6.85;5.15;;;;;;;7.89;85.09;100398.53;4829486;29;20031;-72
2022/04/05 03:23:44;;;;;;;9.93;6.82;;;;;;;7.89;85.11;100393.81;4829186;29;20050;-72
2022/04/05 03:26:09;;;;;;;6.78;4.63;;;;;;;7.91;84.75;100394.38;4828106;29;20042;-72
2022/04/05 03:28:35;;;;;;;5.65;4.55;;;;;;;7.89;84.43;100396.56;4829203;29;20038;-72
2022/04/05 03:31:00;;;;;;;7.90;5.85;;;;;;;7.92;86.69;100389.66;4830213;29;20039;-72
2022/04/05 03:33:26;;;;;;;6.50;4.63;;;;;;;7.92;85.85;100390.47;4841292;29;20042;-72
2022/04/05 03:35:54;;;;;;;6.78;4.80;;;;;;;7.91;85.01;100388.84;4829715;29;20042;-71
2022/04/05 03:38:19;;;;;;;6.07;4.65;;;;;;;7.90;83.79;100389.91;4828259;29;20140;-72
2022/04/05 03:40:46;;;;;;;7.05;4.93;;;;;;;7.92;85.43;100389.66;4828893;29;20042;-71
2022/04/05 03:43:12;;;;;;;6.53;4.88;;;;;;;7.93;83.90;100383.00;4828848;29;20479;-71
2022/04/05 03:45:38;;;;;;;5.05;4.28;;;;;;;7.92;83.12;100390.47;4827758;29;20041;-71
2022/04/05 03:48:04;;;;;;;5.57;4.38;;;;;;;7.91;82.89;100387.97;4827672;29;20090;-72
2022/04/05 03:50:31;;;;;;;6.50;4.95;;;;;;;7.93;82.93;100386.59;4828847;29;20042;-72
2022/04/05 03:52:59;;;;;;;6.45;4.63;;;;;;;7.92;83.21;100382.19;4828507;29;20446;-72
2022/04/05 03:55:25;;;;;;;6.45;4.80;;;;;;;7.93;83.72;100375.53;4827688;29;20035;-72
2022/04/05 03:57:50;;;;;;;6.28;5.18;;;;;;;7.95;84.01;100383.56;4831092;29;20500;-72
2022/04/05 04:00:16;;;;;;;6.85;4.95;;;;;;;7.94;84.27;100385.50;4815890;29;20026;-72
2022/04/05 04:02:42;;;;;;;5.30;4.65;;;;;;;7.95;85.11;100378.03;4828597;29;20142;-72
2022/04/05 04:05:08;;;;;;;6.53;5.32;;;;;;;7.94;84.19;100376.34;4828573;29;20051;-72
2022/04/05 04:07:39;;;;;;;6.13;4.47;;;;;;;7.95;84.07;100380.81;4828677;29;20039;-72
2022/04/05 04:10:05;;;;;;;6.82;5.05;;;;;;;7.96;84.25;100382.44;4827474;29;20038;-72
2022/04/05 04:12:32;;;;;;;6.03;4.90;;;;;;;7.96;85.09;100379.69;4828366;29;20060;-72
2022/04/05 04:14:57;;;;;;;7.20;5.50;;;;;;;7.96;84.37;100374.97;4828529;29;20446;-72
2022/04/05 04:17:23;;;;;;;6.85;4.82;;;;;;;7.96;84.10;100374.16;4827307;29;20038;-72
2022/04/05 04:19:49;;;;;;;5.45;4.55;;;;;;;7.96;83.63;100382.44;4828046;29;20031;-72
2022/04/05 04:22:14;;;;;;;8.70;6.15;;;;;;;7.97;85.82;100381.34;4827158;29;20476;-72
2022/04/05 04:24:40;;;;;;;6.10;4.75;;;;;;;7.98;84.64;100378.28;4830848;29;20042;-71
2022/04/05 04:27:06;;;;;;;6.00;4.95;;;;;;;7.99;84.17;100379.13;4830478;29;20038;-71
2022/04/05 04:29:32;;;;;;;6.93;4.30;;;;;;;7.98;83.71;100375.53;4811789;29;20499;-72
2022/04/05 04:31:58;;;;;;;7.00;5.00;;;;;;;7.99;85.46;100379.13;4828264;29;20030;-72
2022/04/05 04:34:23;;;;;;;6.18;4.82;;;;;;;7.98;83.74;100377.47;4836037;29;20066;-72
2022/04/05 04:36:49;;;;;;;6.00;4.45;;;;;;;8.00;84.08;100378.03;4828302;29;20038;-72
2022/04/05 04:39:17;;;;;;;5.47;4.07;;;;;;;8.01;83.73;100379.69;4827038;29;20057;-71
2022/04/05 04:41:43;;;;;;;7.28;5.20;;;;;;;8.00;83.51;100378.03;4827894;29;20058;-71
2022/04/05 04:44:09;;;;;;;5.95;4.90;;;;;;;8.01;83.58;100379.69;4828185;29;20038;-71
2022/04/05 04:46:34;;;;;;;7.07;5.15;;;;;;;8.02;85.04;100375.78;4828001;29;20095;-71
2022/04/05 04:49:00;;;;;;;6.00;5.10;;;;;;;8.00;86.51;100376.09;4824909;29;20046;-71
2022/04/05 04:51:25;;;;;;;5.63;4.38;;;;;;;8.01;85.52;100371.38;4831661;29;20043;-71
2022/04/05 04:53:51;;;;;;;7.40;5.85;;;;;;;8.03;85.86;100374.69;4821550;29;20035;-71
2022/04/05 04:56:16;;;;;;;6.65;5.22;;;;;;;8.01;85.47;100376.91;4822706;29;20477;-72
2022/04/05 04:58:42;;;;;;;6.68;4.95;;;;;;;8.03;86.14;100380.22;4827961;29;20071;-73
2022/04/05 05:01:07;;;;;;;7.35;5.85;;;;;;;8.04;86.06;100376.34;4827636;29;20054;-73
2022/04/05 05:03:33;;;;;;;6.43;4.95;;;;;;;8.03;85.48;100377.47;4827487;29;20054;-73
2022/04/05 05:05:58;;;;;;;9.32;6.53;;;;;;;8.04;88.35;100381.88;4826632;29;20038;-73
2022/04/05 05:08:24;;;;;;;6.18;4.60;;;;;;;8.04;84.67;100381.88;4827548;29;20042;-73
2022/04/05 05:10:49;;;;;;;6.15;4.43;;;;;;;8.05;84.79;100372.47;4794000;29;20027;-73
2022/04/05 05:13:17;;;;;;;6.70;4.90;;;;;;;8.05;85.05;100378.84;4808192;29;20034;-73
2022/04/05 05:15:43;;;;;;;6.13;4.70;;;;;;;8.05;84.86;100384.38;4823141;29;20046;-73
2022/04/05 05:18:09;;;;;;;7.13;4.32;;;;;;;8.04;84.63;100376.34;4830182;29;20037;-73
2022/04/05 05:20:34;;;;;;;6.57;4.60;;;;;;;8.04;84.22;100371.63;4815492;29;20031;-73
2022/04/05 05:23:00;;;;;;;6.70;4.70;;;;;;;8.04;84.53;100377.16;4827642;29;20091;-73
2022/04/05 05:25:25;;;;;;;6.75;5.05;;;;;;;8.05;84.42;100378.00;4809983;29;20031;-73
2022/04/05 05:27:51;;;;;;;5.50;4.15;;;;;;;8.06;84.84;100374.13;4826355;29;20051;-73
2022/04/05 05:30:17;;;;;;;7.93;4.95;;;;;;;8.07;84.98;100375.78;4827238;29;20035;-73
2022/04/05 05:32:43;;;;;;;6.75;4.85;;;;;;;8.06;85.20;100382.44;4832557;29;20098;-73
2022/04/05 05:35:09;;;;;;;6.53;4.72;;;;;;;8.08;85.32;100388.53;4831453;29;20038;-73
2022/04/05 05:37:35;;;;;;;9.40;5.90;;;;;;;8.06;86.50;100383.25;4826206;29;20041;-73
2022/04/05 05:40:00;;;;;;;5.93;4.38;;;;;;;8.05;85.18;100373.31;4825924;29;20072;-73
2022/04/05 05:42:26;;;;;;;5.30;4.60;;;;;;;8.07;85.58;100375.78;4829995;29;20038;-72
2022/04/05 05:44:51;;;;;;;10.93;5.10;;;;;;;8.06;85.93;100380.50;4830398;29;20099;-71
2022/04/05 05:47:17;;;;;;;6.70;4.85;;;;;;;8.08;86.80;100388.53;4827280;29;20039;-71
2022/04/05 05:49:42;;;;;;;6.47;4.72;;;;;;;8.07;87.75;100381.31;4826769;29;20042;-71
2022/04/05 05:52:08;;;;;;;6.78;4.80;;;;;;;8.07;87.10;100381.31;4827297;29;20034;-70
2022/04/05 05:54:33;;;;;;;5.25;4.35;;;;;;;8.09;87.06;100386.59;4814759;29;20058;-71
2022/04/05 05:56:58;;;;;;;8.30;4.70;;;;;;;8.07;86.94;100384.09;4827288;29;20030;-71
2022/04/05 05:59:26;;;;;;;8.55;5.05;;;;;;;8.09;86.90;100387.41;4827110;29;20041;-71
2022/04/05 06:01:51;;;;;;;8.60;5.43;;;;;;;8.10;87.62;100391.81;4826879;29;20061;-71
2022/04/05 06:04:17;;;;;;;8.50;5.55;;;;;;;8.10;87.59;100397.34;4826911;29;20058;-71
2022/04/05 06:06:43;;;;;;;6.70;4.63;;;;;;;8.11;88.16;100390.72;4826513;29;20063;-71
2022/04/05 06:09:08;;;;;;;6.07;4.57;;;;;;;8.12;87.89;100394.31;4831970;29;20513;-72
2022/04/05 06:11:34;;;;;;;7.20;4.90;;;;;;;8.13;88.20;100394.00;4832750;29;20090;-71
2022/04/05 06:13:59;;;;;;;7.53;5.05;;;;;;;8.14;88.61;100398.47;4830531;29;20039;-71
2022/04/05 06:16:25;;;;;;;7.22;4.80;;;;;;;8.15;88.39;100393.75;4830395;29;20046;-71
2022/04/05 06:18:50;;;;;;;7.88;5.50;;;;;;;8.17;89.20;100402.59;4828955;29;20600;-72
2022/04/05 06:21:16;;;;;;;6.30;4.70;;;;;;;8.16;90.20;100401.78;4830461;29;20063;-71
2022/04/05 06:23:41;;;;;;;7.68;4.97;;;;;;;8.16;90.23;100401.78;4830412;29;20069;-73
2022/04/05 06:26:07;;;;;;;7.45;4.95;;;;;;;8.18;90.89;100401.47;4829269;29;20042;-72
2022/04/05 06:28:32;;;;;;;8.82;5.32;;;;;;;8.18;90.45;100405.06;4828956;29;20062;-72
2022/04/05 06:30:58;;;;;;;7.75;5.35;;;;;;;8.21;90.70;100400.91;4829029;29;20031;-73
2022/04/05 06:33:24;;;;;;;6.70;4.78;;;;;;;8.22;90.04;100411.72;4838919;29;20042;-74
2022/04/05 06:35:59;;;;;;;6.65;4.35;;;;;;;8.23;89.43;100412.53;4831344;29;20034;-74
2022/04/05 06:38:25;;;;;;;9.25;5.55;;;;;;;8.26;90.73;100412.78;4828213;29;20038;-74
2022/04/05 06:40:52;;;;;;;6.25;4.75;;;;;;;8.27;91.16;100410.84;4829944;29;20050;-74
2022/04/05 06:43:25;;;;;;;8.38;5.93;;;;;;;8.29;91.84;100414.19;4828766;29;20053;-75
2022/04/05 06:45:51;;;;;;;11.05;6.18;;;;;;;8.29;90.73;100423.31;4825135;29;20040;-74
2022/04/05 06:48:17;;;;;;;8.20;4.75;;;;;;;8.33;89.89;100420.81;4829569;29;20118;-74
2022/04/05 06:50:42;;;;;;;10.95;6.07;;;;;;;8.35;91.78;100421.34;4828498;29;20099;-74
2022/04/05 06:53:08;;;;;;;8.73;5.43;;;;;;;8.37;91.10;100419.13;4826913;29;20042;-76
2022/04/05 06:55:34;;;;;;;7.28;5.00;;;;;;;8.39;89.54;100419.72;4818707;29;20030;-76
2022/04/05 06:57:59;;;;;;;8.27;5.82;;;;;;;8.41;91.56;100422.19;4812878;29;20050;-77
2022/04/05 07:00:25;;;;;;;8.18;5.47;;;;;;;8.43;91.28;100417.22;4828811;29;20026;-77
2022/04/05 07:02:51;;;;;;;9.75;5.75;;;;;;;8.44;91.66;100408.63;4816797;29;20041;-76
2022/04/05 07:05:17;;;;;;;12.60;6.57;;;;;;;8.48;94.15;100408.91;4815661;29;20045;-76
2022/04/05 07:07:43;;;;;;;12.20;6.20;;;;;;;8.50;94.17;100404.72;4802012;29;20458;-76
2022/04/05 07:10:10;;;;;;;9.50;6.18;;;;;;;8.53;93.90;100408.88;4826864;29;20038;-76
2022/04/05 07:12:35;;;;;;;10.25;6.57;;;;;;;8.54;93.31;100416.06;4813150;29;20031;-77
2022/04/05 07:15:01;;;;;;;9.23;6.18;;;;;;;8.58;92.83;100414.41;4803922;29;20026;-77
2022/04/05 07:17:26;;;;;;;12.68;6.00;;;;;;;8.61;93.37;100413.81;4815084;29;20034;-77
2022/04/05 07:19:52;;;;;;;12.45;6.25;;;;;;;8.63;95.26;100414.34;4828073;29;20030;-77
2022/04/05 07:22:19;;;;;;;10.13;6.40;;;;;;;8.68;93.22;100419.06;4829511;29;20035;-77
2022/04/05 07:24:45;;;;;;;9.52;5.53;;;;;;;8.71;92.79;100418.47;4828267;29;20038;-77
2022/04/05 07:27:11;;;;;;;9.27;5.57;;;;;;;8.75;92.59;100408.50;4813362;29;20034;-77
2022/04/05 07:29:37;;;;;;;11.52;5.97;;;;;;;8.80;95.82;100422.31;4813399;29;20034;-77
2022/04/05 07:32:02;;;;;;;8.75;5.68;;;;;;;8.85;94.44;100424.22;4815024;29;20038;-77
2022/04/05 07:34:28;;;;;;;9.00;5.55;;;;;;;8.87;95.76;100419.25;4789714;29;20039;-77
2022/04/05 07:36:54;;;;;;;6.68;5.07;;;;;;;8.90;95.34;100415.91;4810057;29;20057;-77
2022/04/05 07:39:21;;;;;;;11.65;4.95;;;;;;;8.93;94.99;100412.56;4824989;29;20038;-77
2022/04/05 07:41:47;;;;;;;14.13;5.72;;;;;;;8.99;96.40;100407.81;4800621;29;20046;-77
2022/04/05 07:44:13;;;;;;;12.05;5.38;;;;;;;9.03;93.89;100412.50;4798039;29;20030;-77
2022/04/05 07:46:39;;;;;;;12.70;5.85;;;;;;;9.08;94.18;100412.47;4798707;29;20031;-77
2022/04/05 07:49:05;;;;;;;10.38;5.53;;;;;;;9.10;94.10;100418.53;4827451;29;20035;-78
2022/04/05 07:51:30;;;;;;;10.25;5.28;;;;;;;9.14;94.52;100416.03;4812758;29;20039;-78
2022/04/05 07:53:55;;;;;;;12.93;5.95;;;;;;;9.18;96.46;100417.13;4812649;29;20034;-77
2022/04/05 07:56:21;;;;;;;11.32;5.20;;;;;;;9.23;96.00;100413.50;4816602;29;20034;-78
2022/04/05 07:58:47;;;;;;;13.73;5.72;;;;;;;9.26;96.92;100416.50;4830544;29;20038;-77
2022/04/05 08:01:12;;;;;;;13.18;5.93;;;;;;;9.30;97.83;100413.97;4810909;29;20074;-77
2022/04/05 08:03:38;;;;;;;16.45;6.75;;;;;;;9.35;98.48;100419.50;4826587;29;20039;-77
2022/04/05 08:06:04;;;;;;;14.73;5.30;;;;;;;9.38;96.79;100407.81;4811004;29;20038;-77
2022/04/05 08:08:29;;;;;;;11.88;5.22;;;;;;;9.41;97.55;100412.78;4827468;29;20139;-77
2022/04/05 08:10:55;;;;;;;13.05;6.03;;;;;;;9.45;97.73;100405.56;4770507;29;20030;-77
2022/04/05 08:13:21;;;;;;;14.05;5.53;;;;;;;9.50;97.78;100410.22;4812498;29;20420;-77
2022/04/05 08:15:46;;;;;;;18.27;6.25;;;;;;;9.54;98.62;100414.91;4811983;29;20106;-77
2022/04/05 08:18:12;;;;;;;15.85;5.90;;;;;;;9.59;99.88;100412.09;4827131;29;20034;-77
2022/04/05 08:20:41;;;;;;;15.38;6.57;;;;;;;9.65;100.00;100415.66;4831724;29;20046;-77
2022/04/05 08:23:09;;;;;;;14.30;7.13;;;;;;;9.68;100.00;100417.03;4802241;29;20027;-77
2022/04/05 08:25:35;;;;;;;13.20;5.63;;;;;;;9.72;100.00;100420.84;4813568;29;20039;-77
2022/04/05 08:28:00;;;;;;;11.05;5.70;;;;;;;9.75;100.00;100414.72;4827252;29;20038;-77
2022/04/05 08:30:26;;;;;;;19.65;6.50;;;;;;;9.78;99.91;100419.72;4826225;29;20480;-77
2022/04/05 08:32:51;;;;;;;15.00;4.97;;;;;;;9.81;100.00;100422.72;4813165;29;20038;-77
2022/04/05 08:35:18;;;;;;;14.73;5.45;;;;;;;9.87;100.00;100426.28;4826623;29;20109;-77
2022/04/05 08:37:44;;;;;;;11.85;5.68;;;;;;;9.91;100.00;100424.56;4824377;29;20039;-77
2022/04/05 08:40:14;;;;;;;17.42;5.93;;;;;;;9.97;100.00;100428.13;4839334;29;20054;-77
2022/04/05 08:42:42;;;;;;;16.35;5.55;;;;;;;10.03;100.00;100429.75;4811885;29;20066;-78
2022/04/05 08:45:10;;;;;;;16.30;5.75;;;;;;;10.07;100.00;100434.41;4811585;29;20022;-78
2022/04/05 08:47:41;;;;;;;14.95;4.97;;;;;;;10.12;100.00;100441.03;4843566;29;20045;-78
2022/04/05 08:50:07;;;;;;;11.68;5.13;;;;;;;10.17;100.00;100444.59;4801077;29;20039;-78
2022/04/05 08:52:34;;;;;;;14.10;5.40;;;;;;;10.21;100.00;100442.06;4826981;29;20408;-77
2022/04/05 08:55:00;;;;;;;10.40;4.95;;;;;;;10.22;100.00;100441.78;4823584;29;20039;-78
2022/04/05 08:57:25;;;;;;;12.88;5.25;;;;;;;10.27;100.00;100449.22;4826419;29;20056;-78
2022/04/05 08:59:51;;;;;;;13.30;5.00;;;;;;;10.28;100.00;100445.34;4811600;29;20042;-78
2022/04/05 09:02:26;;;;;;;13.65;5.25;;;;;;;10.29;100.00;100450.59;4811183;29;20034;-77
2022/04/05 09:04:52;;;;;;;17.63;5.13;;;;;;;10.33;100.00;100444.44;4811307;29;20045;-77
2022/04/05 09:07:25;;;;;;;12.57;5.30;;;;;;;10.33;100.00;100448.03;4826745;29;20030;-76
2022/04/05 09:10:06;;;;;;;13.85;5.53;;;;;;;10.37;100.00;100449.13;4820582;29;20480;-76
2022/04/05 09:12:58;;;;;;;17.50;5.82;;;;;;;10.41;100.00;100450.19;4827688;29;20038;-77
2022/04/05 09:15:25;;;;;;;11.98;5.70;;;;;;;10.41;100.00;100447.41;4803726;29;20046;-78
2022/04/05 09:17:51;;;;;;;12.55;4.75;;;;;;;10.44;100.00;100446.81;4827806;29;20030;-77
2022/04/05 09:20:17;;;;;;;12.30;5.20;;;;;;;10.45;100.00;100451.25;4826239;29;20030;-78
2022/04/05 09:22:43;;;;;;;12.95;5.78;;;;;;;10.45;100.00;100445.72;4811193;29;20641;-77
2022/04/05 09:25:10;;;;;;;14.70;5.40;;;;;;;10.47;100.00;100443.47;4826416;29;20034;-77
2022/04/05 09:27:52;;;;;;;13.80;5.60;;;;;;;10.50;100.00;100448.44;4799188;29;20563;-78
2022/04/05 09:30:22;;;;;;;13.70;5.50;;;;;;;10.55;100.00;100450.31;4810347;29;20130;-77
2022/04/05 09:32:48;;;;;;;16.30;5.32;;;;;;;10.59;100.00;100456.94;4818981;29;20461;-77
2022/04/05 09:35:18;;;;;;;15.77;5.20;;;;;;;10.62;100.00;100450.78;4826094;29;20419;-77
2022/04/05 09:37:44;;;;;;;12.48;5.38;;;;;;;10.68;100.00;100459.88;4827552;29;20030;-77
2022/04/05 09:40:34;;;;;;;10.35;4.63;;;;;;;10.70;100.00;100454.88;4811641;29;20054;-77
2022/04/05 09:43:09;;;;;;;9.30;4.70;;;;;;;10.75;100.00;100460.34;4815787;29;20073;-78
2022/04/05 09:45:57;;;;;;;13.77;4.78;;;;;;;10.80;100.00;100462.25;4811535;29;20062;-78
2022/04/05 09:48:24;;;;;;;10.82;5.40;;;;;;;10.82;100.00;100457.22;4812264;29;20034;-77
2022/04/05 09:51:05;;;;;;;12.18;5.13;;;;;;;10.87;100.00;100465.50;4810427;29;20042;-77
2022/04/05 09:53:34;;;;;;;18.60;5.75;;;;;;;10.90;100.00;100462.94;4814648;29;20117;-77
2022/04/05 09:56:10;;;;;;;15.23;6.00;;;;;;;10.94;100.00;100458.44;4810774;29;20038;-77
2022/04/05 09:58:36;;;;;;;17.90;5.50;;;;;;;10.98;100.00;100466.16;4826242;29;20549;-77
2022/04/05 10:01:10;;;;;;;10.43;4.60;;;;;;;10.99;100.00;100459.50;4798752;29;20031;-74
2022/04/05 10:03:39;;;;;;;13.65;5.13;;;;;;;11.02;100.00;100461.69;4809144;29;20125;-75
2022/04/05 10:06:05;;;;;;;17.60;5.65;;;;;;;11.06;100.00;100468.28;4826000;29;20051;-76
2022/04/05 10:08:31;;;;;;;14.23;4.88;;;;;;;11.09;100.00;100465.75;4828904;29;20488;-76
2022/04/05 10:10:57;;;;;;;9.65;5.00;;;;;;;11.16;100.00;100465.38;4828261;29;20030;-74
2022/04/05 10:13:22;;;;;;;11.05;4.47;;;;;;;11.17;100.00;100465.09;4825825;29;20647;-74
2022/04/05 10:15:48;;;;;;;10.45;4.57;;;;;;;11.19;100.00;100462.00;4825765;29;20139;-76
2022/04/05 10:18:18;;;;;;;11.50;5.20;;;;;;;11.23;100.00;100456.66;4810083;29;20022;-78
2022/04/05 10:20:45;;;;;;;12.25;5.25;;;;;;;11.26;100.00;100456.91;4798721;29;20042;-78
2022/04/05 10:23:10;;;;;;;11.43;4.75;;;;;;;11.28;100.00;100460.22;4810859;29;20035;-78
2022/04/05 10:25:36;;;;;;;10.82;5.00;;;;;;;11.28;100.00;100457.44;4795639;29;20034;-78
2022/04/05 10:28:02;;;;;;;15.20;5.07;;;;;;;11.31;100.00;100464.31;4810585;29;20038;-78
2022/04/05 10:30:31;;;;;;;8.18;4.35;;;;;;;11.32;100.00;100466.81;4825361;29;20030;-78
2022/04/05 10:33:26;;;;;;;6.22;3.75;;;;;;;11.31;100.00;100467.97;4818038;29;20406;-78
2022/04/05 10:35:57;;;;;;;9.90;3.90;;;;;;;11.33;100.00;100459.31;4823881;29;20064;-78
2022/04/05 10:38:24;;;;;;;10.68;3.97;;;;;;;11.35;100.00;100463.44;4812404;29;20451;-77
2022/04/05 10:41:08;;;;;;;12.55;4.72;;;;;;;11.35;100.00;100460.66;4825506;29;20054;-78
2022/04/05 10:43:34;;;;;;;12.30;4.45;;;;;;;11.36;100.00;100464.25;4826703;29;20122;-78
2022/04/05 10:45:59;;;;;;;8.50;4.05;;;;;;;11.36;100.00;100464.25;4825270;29;20038;-77
2022/04/05 10:48:27;;;;;;;8.98;4.47;;;;;;;11.39;100.00;100458.09;4825055;29;20496;-76
2022/04/05 10:51:02;;;;;;;7.38;3.67;;;;;;;11.40;100.00;100455.03;4840547;29;20051;-76
2022/04/05 10:53:34;;;;;;;9.40;3.70;;;;;;;11.40;100.00;100455.03;4830708;29;20553;-79
2022/04/05 10:56:02;;;;;;;7.87;3.70;;;;;;;11.50;100.00;100467.13;4829149;29;20038;-79
2022/04/05 10:58:37;;;;;;;8.20;3.33;;;;;;;11.56;100.00;100463.13;4827953;29;20400;-79
2022/04/05 11:01:20;;;;;;;10.20;3.55;;;;;;;11.64;100.00;100454.09;4829687;29;20495;-79
2022/04/05 11:04:20;;;;;;;7.68;3.33;;;;;;;11.71;100.00;100453.72;4821464;29;20034;-79
2022/04/05 11:07:01;;;;;;;5.32;3.60;;;;;;;11.79;100.00;100450.25;4824716;29;20528;-78
2022/04/05 11:09:33;;;;;;;12.48;3.70;;;;;;;11.85;100.00;100454.59;4824776;29;20041;-78
2022/04/05 11:12:09;;;;;;;5.50;3.28;;;;;;;11.89;99.30;100446.50;4828169;29;20111;-78
2022/04/05 11:14:49;;;;;;;6.00;3.67;;;;;;;11.95;99.40;100453.63;4826235;29;20041;-78
2022/04/05 11:17:18;;;;;;;12.18;4.00;;;;;;;11.99;98.75;100451.88;4829201;29;20050;-78
2022/04/05 11:19:50;;;;;;;8.93;3.65;;;;;;;12.03;99.02;100455.69;4827950;29;20076;-78
2022/04/05 11:22:21;;;;;;;10.48;3.53;;;;;;;12.03;97.45;100445.38;4813113;29;20026;-78
2022/04/05 11:24:56;;;;;;;7.57;3.30;;;;;;;12.04;95.22;100449.03;4829286;29;20503;-78
2022/04/05 11:27:46;;;;;;;7.82;3.67;;;;;;;12.01;97.22;100453.25;4829508;29;20189;-79